createdAt,value
2023-01-20T00:00:12.318Z,8.13
2023-01-20T00:02:39.533Z,8.50
2023-01-20T00:05:07.110Z,7.90
2023-01-20T00:07:35.389Z,7.93
2023-01-20T00:10:02.745Z,8.32
2023-01-20T00:12:31.641Z,8.52
2023-01-20T00:14:58.840Z,8.23
2023-01-20T00:17:25.967Z,8.00
2023-01-20T00:19:53.038Z,8.50
2023-01-20T00:22:21.489Z,8.10
2023-01-20T00:24:48.663Z,8.20
2023-01-20T00:27:16.339Z,9.10
2023-01-20T00:29:44.223Z,7.97
2023-01-20T00:32:11.802Z,7.97
2023-01-20T00:34:39.044Z,8.60
2023-01-20T00:37:06.183Z,8.40
2023-01-20T00:39:33.369Z,8.33
2023-01-20T00:42:00.471Z,8.32
2023-01-20T00:44:27.526Z,8.10
2023-01-20T00:46:54.625Z,8.52
2023-01-20T00:49:21.745Z,8.05
2023-01-20T00:51:48.515Z,8.40
2023-01-20T00:54:15.589Z,7.95
2023-01-20T00:56:42.286Z,8.60
2023-01-20T00:59:10.396Z,8.70
2023-01-20T01:01:37.347Z,8.60
2023-01-20T01:04:04.649Z,7.90
2023-01-20T01:06:31.408Z,7.38
2023-01-20T01:08:58.509Z,8.10
2023-01-20T01:11:25.621Z,8.02
2023-01-20T01:13:52.761Z,8.05
2023-01-20T01:16:19.638Z,7.95
2023-01-20T01:18:46.817Z,8.30
2023-01-20T01:21:15.705Z,8.55
2023-01-20T01:23:43.110Z,7.70
2023-01-20T01:26:10.412Z,8.32
2023-01-20T01:28:37.589Z,8.50
2023-01-20T01:31:06.077Z,8.55
2023-01-20T01:33:33.414Z,8.20
2023-01-20T01:36:02.006Z,8.27
2023-01-20T01:38:29.693Z,8.63
2023-01-20T01:40:57.233Z,8.68
2023-01-20T01:43:26.099Z,8.63
2023-01-20T01:45:53.067Z,8.70
2023-01-20T01:48:37.597Z,8.32
2023-01-20T01:51:07.770Z,8.88
2023-01-20T01:53:38.954Z,8.55
2023-01-20T01:56:05.981Z,8.90
2023-01-20T01:58:35.316Z,8.38
2023-01-20T02:01:02.544Z,8.65
2023-01-20T02:03:32.512Z,8.82
2023-01-20T02:05:59.818Z,8.30
2023-01-20T02:08:26.938Z,8.43
2023-01-20T02:10:54.126Z,9.30
2023-01-20T02:13:21.272Z,9.35
2023-01-20T02:16:02.182Z,8.80
2023-01-20T02:18:29.281Z,8.98
2023-01-20T02:21:11.582Z,9.23
2023-01-20T02:23:48.346Z,9.13
2023-01-20T02:26:35.388Z,10.00
2023-01-20T02:29:14.628Z,9.82
2023-01-20T02:31:42.739Z,9.07
2023-01-20T02:34:09.802Z,9.95
2023-01-20T02:36:36.905Z,9.65
2023-01-20T02:39:09.960Z,9.15
2023-01-20T02:41:46.620Z,9.57
2023-01-20T02:44:20.784Z,10.05
2023-01-20T02:46:59.848Z,10.18
2023-01-20T02:49:31.374Z,10.10
2023-01-20T02:52:16.052Z,9.73
2023-01-20T02:54:45.543Z,10.35
2023-01-20T02:57:15.164Z,10.15
2023-01-20T02:59:45.105Z,9.90
2023-01-20T03:02:12.174Z,10.00
2023-01-20T03:04:44.437Z,9.32
2023-01-20T03:07:12.274Z,9.30
2023-01-20T03:09:45.899Z,9.87
2023-01-20T03:12:24.169Z,10.55
2023-01-20T03:14:52.395Z,10.20
2023-01-20T03:17:20.492Z,9.60
2023-01-20T03:19:47.755Z,9.38
2023-01-20T03:22:15.121Z,9.68
2023-01-20T03:24:43.691Z,10.07
2023-01-20T03:27:11.338Z,8.95
2023-01-20T03:29:38.446Z,10.90
2023-01-20T03:32:07.388Z,11.48
2023-01-20T03:34:36.087Z,11.13
2023-01-20T03:37:04.799Z,10.73
2023-01-20T03:39:32.475Z,11.27
2023-01-20T03:42:02.859Z,10.25
2023-01-20T03:44:38.359Z,9.43
2023-01-20T03:47:08.745Z,10.63
2023-01-20T03:49:42.191Z,9.43
2023-01-20T03:52:17.242Z,9.88
2023-01-20T03:54:49.356Z,10.85
2023-01-20T03:57:19.063Z,11.35
2023-01-20T03:59:47.265Z,10.70
2023-01-20T04:02:14.406Z,10.52
2023-01-20T04:04:43.739Z,11.77
2023-01-20T04:07:13.284Z,11.02
2023-01-20T04:09:43.211Z,10.23
2023-01-20T04:12:10.395Z,11.27
2023-01-20T04:14:37.540Z,11.82
2023-01-20T04:17:05.351Z,13.50
2023-01-20T04:19:32.410Z,13.05
2023-01-20T04:22:09.943Z,13.10
2023-01-20T04:24:56.907Z,12.35
2023-01-20T04:27:24.082Z,12.23
2023-01-20T04:29:51.126Z,12.57
2023-01-20T04:32:18.186Z,12.65
2023-01-20T04:34:45.417Z,12.60
2023-01-20T04:37:12.514Z,12.60
2023-01-20T04:39:39.622Z,13.13
2023-01-20T04:42:06.711Z,13.88
2023-01-20T04:44:33.897Z,12.88
2023-01-20T04:47:00.944Z,12.63
2023-01-20T04:49:28.253Z,13.35
2023-01-20T04:51:55.317Z,12.82
2023-01-20T04:54:22.478Z,14.20
2023-01-20T04:56:49.999Z,13.50
2023-01-20T04:59:17.222Z,14.10
2023-01-20T05:01:44.403Z,13.50
2023-01-20T05:04:11.541Z,13.30
2023-01-20T05:06:42.552Z,13.60
2023-01-20T05:09:16.158Z,13.80
2023-01-20T05:11:43.549Z,12.70
2023-01-20T05:14:11.688Z,13.55
2023-01-20T05:16:38.787Z,15.02
2023-01-20T05:19:05.902Z,15.48
2023-01-20T05:21:33.869Z,14.13
2023-01-20T05:24:00.920Z,14.32
2023-01-20T05:26:28.076Z,15.07
2023-01-20T05:28:55.267Z,14.82
2023-01-20T05:31:22.799Z,15.55
2023-01-20T05:33:49.920Z,14.63
2023-01-20T05:36:16.999Z,13.85
2023-01-20T05:38:44.120Z,14.13
2023-01-20T05:41:12.978Z,14.32
2023-01-20T05:43:40.085Z,15.73
2023-01-20T05:46:07.605Z,14.97
2023-01-20T05:48:34.711Z,14.70
2023-01-20T05:51:01.905Z,15.60
2023-01-20T05:53:29.002Z,15.23
2023-01-20T05:56:01.724Z,15.93
2023-01-20T05:58:29.300Z,16.60
2023-01-20T06:01:03.577Z,14.73
2023-01-20T06:03:30.716Z,16.07
2023-01-20T06:06:00.892Z,15.43
2023-01-20T06:08:28.030Z,15.85
2023-01-20T06:10:55.226Z,16.92
2023-01-20T06:13:22.342Z,15.15
2023-01-20T06:15:54.716Z,14.77
2023-01-20T06:18:22.441Z,16.25
2023-01-20T06:20:49.313Z,16.48
2023-01-20T06:23:16.741Z,17.15
2023-01-20T06:25:43.964Z,16.42
2023-01-20T06:28:11.151Z,16.80
2023-01-20T06:30:38.666Z,16.05
2023-01-20T06:33:10.476Z,16.75
2023-01-20T06:35:37.913Z,16.03
2023-01-20T06:38:05.096Z,16.38
2023-01-20T06:40:32.194Z,16.35
2023-01-20T06:42:59.511Z,17.95
2023-01-20T06:45:26.685Z,16.45
2023-01-20T06:47:53.741Z,16.83
2023-01-20T06:50:20.741Z,14.93
2023-01-20T06:52:47.874Z,15.55
2023-01-20T06:55:15.146Z,16.27
2023-01-20T06:57:42.354Z,15.82
2023-01-20T07:00:09.833Z,15.07
2023-01-20T07:02:37.002Z,16.38
2023-01-20T07:05:08.004Z,16.42
2023-01-20T07:07:35.372Z,16.55
2023-01-20T07:10:02.961Z,17.20
2023-01-20T07:12:30.014Z,18.05
2023-01-20T07:14:57.162Z,17.13
2023-01-20T07:17:24.281Z,17.83
2023-01-20T07:19:51.412Z,18.38
2023-01-20T07:22:18.522Z,18.63
2023-01-20T07:24:45.616Z,17.95
2023-01-20T07:27:12.698Z,17.90
2023-01-20T07:29:40.518Z,18.80
2023-01-20T07:32:07.632Z,17.30
2023-01-20T07:34:34.713Z,17.67
2023-01-20T07:37:02.415Z,16.95
2023-01-20T07:39:29.555Z,17.95
2023-01-20T07:41:56.682Z,17.67
2023-01-20T07:44:23.738Z,18.63
2023-01-20T07:46:51.599Z,19.35
2023-01-20T07:49:18.305Z,18.98
2023-01-20T07:51:45.423Z,17.58
2023-01-20T07:54:12.802Z,17.27
2023-01-20T07:56:40.428Z,17.45
2023-01-20T07:59:07.706Z,17.90
2023-01-20T08:01:34.837Z,18.00
2023-01-20T08:04:02.427Z,19.30
2023-01-20T08:06:30.037Z,18.77
2023-01-20T08:09:00.548Z,18.50
2023-01-20T08:11:27.840Z,18.63
2023-01-20T08:13:55.087Z,18.17
2023-01-20T08:16:21.942Z,18.08
2023-01-20T08:18:49.281Z,17.13
2023-01-20T08:21:20.993Z,17.10
2023-01-20T08:23:48.141Z,18.45
2023-01-20T08:26:15.297Z,18.77
2023-01-20T08:28:42.387Z,18.42
2023-01-20T08:31:10.837Z,18.17
2023-01-20T08:33:38.431Z,19.30
2023-01-20T08:36:12.512Z,18.38
2023-01-20T08:38:40.072Z,18.80
2023-01-20T08:41:08.556Z,19.58
2023-01-20T08:43:35.692Z,20.05
2023-01-20T08:46:05.199Z,20.23
2023-01-20T08:48:32.594Z,19.77
2023-01-20T08:50:59.920Z,19.42
2023-01-20T08:53:27.050Z,20.02
2023-01-20T08:55:58.257Z,19.30
2023-01-20T08:58:25.624Z,19.77
2023-01-20T09:00:53.117Z,18.97
2023-01-20T09:03:20.647Z,18.90
2023-01-20T09:05:47.945Z,18.70
2023-01-20T09:08:15.152Z,19.35
2023-01-20T09:10:42.244Z,19.08
2023-01-20T09:13:09.559Z,19.02
2023-01-20T09:15:36.663Z,19.70
2023-01-20T09:18:03.859Z,19.50
2023-01-20T09:20:31.091Z,20.48
2023-01-20T09:23:01.730Z,18.48
2023-01-20T09:25:28.836Z,19.33
2023-01-20T09:27:55.913Z,19.17
2023-01-20T09:30:22.975Z,19.00
2023-01-20T09:32:53.142Z,18.95
2023-01-20T09:35:20.351Z,19.23
2023-01-20T09:38:09.086Z,19.08
2023-01-20T09:40:59.365Z,19.05
2023-01-20T09:43:56.552Z,18.65
2023-01-20T09:46:23.701Z,19.25
2023-01-20T09:49:15.972Z,19.08
2023-01-20T09:52:03.956Z,18.70
2023-01-20T09:54:34.893Z,18.70
2023-01-20T09:57:02.709Z,17.85
2023-01-20T09:59:35.663Z,17.15
2023-01-20T10:02:05.090Z,19.10
2023-01-20T10:04:42.772Z,19.05
2023-01-20T10:07:29.758Z,19.30
2023-01-20T10:10:17.238Z,18.63
2023-01-20T10:12:48.030Z,17.92
2023-01-20T10:15:15.130Z,18.55
2023-01-20T10:17:43.207Z,18.45
2023-01-20T10:20:10.569Z,19.92
2023-01-20T10:22:54.228Z,18.90
2023-01-20T10:25:23.848Z,19.23
2023-01-20T10:27:55.281Z,20.17
2023-01-20T10:30:24.894Z,19.10
2023-01-20T10:32:55.434Z,19.30
2023-01-20T10:35:25.799Z,18.60
2023-01-20T10:37:53.194Z,18.23
2023-01-20T10:40:38.411Z,17.92
2023-01-20T10:43:12.222Z,19.95
2023-01-20T10:45:47.840Z,16.17
2023-01-20T10:48:35.327Z,17.55
2023-01-20T10:51:13.269Z,17.88
2023-01-20T10:54:00.379Z,17.58
2023-01-20T10:56:33.032Z,19.63
2023-01-20T10:59:03.830Z,19.63
2023-01-20T11:01:31.356Z,18.40
2023-01-20T11:03:58.470Z,19.60
2023-01-20T11:06:27.553Z,16.30
2023-01-20T11:08:55.390Z,17.75
2023-01-20T11:11:23.407Z,17.98
2023-01-20T11:13:52.407Z,17.25
2023-01-20T11:16:24.454Z,17.88
2023-01-20T11:18:56.054Z,16.45
2023-01-20T11:21:24.467Z,17.77
2023-01-20T11:23:53.273Z,18.83
2023-01-20T11:26:23.023Z,17.80
2023-01-20T11:29:09.646Z,15.27
2023-01-20T11:31:41.750Z,15.55
2023-01-20T11:34:16.205Z,15.57
2023-01-20T11:36:44.735Z,15.30
2023-01-20T11:39:30.790Z,16.63
2023-01-20T11:42:17.978Z,15.82
2023-01-20T11:44:49.862Z,16.40
2023-01-20T11:47:37.179Z,17.27
2023-01-20T11:50:05.452Z,14.07
2023-01-20T11:52:33.468Z,14.63
2023-01-20T11:55:08.091Z,14.97
2023-01-20T11:57:37.201Z,16.42
2023-01-20T12:00:05.213Z,16.52
2023-01-20T12:02:32.322Z,16.30
2023-01-20T12:05:00.406Z,14.15
2023-01-20T12:07:34.453Z,14.60
2023-01-20T12:10:05.340Z,13.67
2023-01-20T12:12:52.373Z,13.60
2023-01-20T12:15:23.077Z,13.95
2023-01-20T12:18:14.263Z,13.05
2023-01-20T12:20:55.084Z,13.95
2023-01-20T12:23:23.664Z,14.68
2023-01-20T12:25:54.683Z,13.98
2023-01-20T12:28:41.740Z,14.02
2023-01-20T12:31:11.155Z,14.52
2023-01-20T12:33:40.169Z,14.45
2023-01-20T12:36:27.208Z,15.05
2023-01-20T12:39:14.221Z,13.88
2023-01-20T12:42:02.905Z,14.68
2023-01-20T12:44:50.096Z,14.30
2023-01-20T12:47:35.470Z,14.15
2023-01-20T12:50:02.938Z,14.25
2023-01-20T12:52:40.751Z,14.50
2023-01-20T12:55:27.902Z,14.13
2023-01-20T12:57:59.883Z,13.00
2023-01-20T13:00:46.966Z,13.35
2023-01-20T13:03:21.417Z,12.93
2023-01-20T13:06:12.285Z,13.38
2023-01-20T13:08:47.455Z,12.90
2023-01-20T13:11:23.526Z,13.57
2023-01-20T13:14:00.337Z,13.17
2023-01-20T13:16:51.789Z,12.75
2023-01-20T13:19:35.851Z,12.40
2023-01-20T13:22:10.623Z,12.50
2023-01-20T13:24:39.602Z,13.13
2023-01-20T13:27:06.579Z,12.23
2023-01-20T13:29:36.957Z,12.73
2023-01-20T13:32:05.091Z,12.10
2023-01-20T13:34:33.341Z,11.43
2023-01-20T13:37:03.385Z,12.82
2023-01-20T13:39:31.286Z,12.75
2023-01-20T13:41:58.347Z,12.48
2023-01-20T13:44:35.281Z,13.38
2023-01-20T13:47:02.929Z,12.40
2023-01-20T13:49:47.550Z,10.80
2023-01-20T13:52:14.579Z,10.63
2023-01-20T13:54:43.971Z,9.90
2023-01-20T13:57:32.782Z,9.90
2023-01-20T14:00:00.018Z,9.85
2023-01-20T14:02:29.138Z,9.90
2023-01-20T14:04:58.657Z,9.98
2023-01-20T14:07:26.850Z,9.18
2023-01-20T14:09:54.923Z,10.25
2023-01-20T14:12:22.296Z,9.60
2023-01-20T14:14:50.272Z,10.57
2023-01-20T14:17:18.883Z,10.00
2023-01-20T14:19:48.192Z,9.18
2023-01-20T14:22:31.977Z,8.68
2023-01-20T14:25:01.641Z,8.55
2023-01-20T14:27:32.090Z,8.82
2023-01-20T14:30:14.290Z,8.65
2023-01-20T14:32:41.776Z,9.48
2023-01-20T14:35:17.870Z,8.68
2023-01-20T14:37:49.628Z,9.35
2023-01-20T14:40:33.617Z,9.65
2023-01-20T14:43:01.880Z,9.45
2023-01-20T14:45:31.326Z,9.45
2023-01-20T14:48:01.998Z,10.75
2023-01-20T14:50:29.471Z,10.88
2023-01-20T14:52:56.650Z,10.20
2023-01-20T14:55:27.878Z,10.80
2023-01-20T14:57:55.145Z,11.25
2023-01-20T15:00:24.409Z,10.80
2023-01-20T15:03:09.509Z,11.10
2023-01-20T15:05:38.823Z,11.55
2023-01-20T15:08:14.831Z,10.73
2023-01-20T15:10:42.515Z,11.38
2023-01-20T15:13:25.861Z,12.80
2023-01-20T15:15:53.129Z,13.35
2023-01-20T15:18:20.445Z,17.38
2023-01-20T15:20:49.273Z,17.25
2023-01-20T15:23:16.324Z,14.38
2023-01-20T15:25:43.432Z,15.75
2023-01-20T15:28:24.817Z,18.70
2023-01-20T15:30:53.050Z,20.40
2023-01-20T15:33:21.638Z,16.52
2023-01-20T15:35:53.462Z,15.48
2023-01-20T15:38:20.584Z,16.42
2023-01-20T15:40:47.767Z,13.90
2023-01-20T15:43:15.998Z,11.67
2023-01-20T15:45:43.489Z,10.80
2023-01-20T15:48:14.177Z,14.15
2023-01-20T15:50:42.448Z,13.50
2023-01-20T15:53:12.524Z,14.10
2023-01-20T15:55:43.034Z,12.90
2023-01-20T15:58:30.264Z,14.90
2023-01-20T16:00:58.152Z,15.55
2023-01-20T16:03:25.817Z,12.27
2023-01-20T16:05:53.672Z,12.65
2023-01-20T16:08:23.451Z,11.75
2023-01-20T16:10:50.547Z,11.50
2023-01-20T16:13:17.570Z,11.10
2023-01-20T16:15:47.636Z,10.80
2023-01-20T16:18:15.808Z,11.20
2023-01-20T16:20:44.004Z,11.13
2023-01-20T16:23:11.287Z,12.38
2023-01-20T16:25:38.635Z,11.77
2023-01-20T16:28:14.372Z,11.52
2023-01-20T16:30:42.346Z,11.68
2023-01-20T16:33:26.234Z,10.85
2023-01-20T16:35:54.361Z,12.88
2023-01-20T16:38:24.068Z,16.15
2023-01-20T16:40:52.620Z,15.32
2023-01-20T16:43:22.768Z,17.38
2023-01-20T16:45:55.220Z,18.38
2023-01-20T16:48:23.684Z,17.55
2023-01-20T16:50:51.167Z,16.05
2023-01-20T16:53:18.722Z,16.08
2023-01-20T16:55:46.921Z,16.23
2023-01-20T16:58:14.441Z,17.00
2023-01-20T17:00:42.045Z,15.50
2023-01-20T17:03:09.525Z,16.58
2023-01-20T17:05:36.750Z,16.13
2023-01-20T17:08:04.237Z,13.85
2023-01-20T17:10:32.551Z,13.93
2023-01-20T17:13:00.004Z,14.20
2023-01-20T17:15:27.488Z,16.50
2023-01-20T17:17:58.093Z,16.35
2023-01-20T17:20:26.382Z,19.75
2023-01-20T17:22:55.632Z,19.88
2023-01-20T17:25:22.993Z,19.60
2023-01-20T17:27:49.741Z,17.45
2023-01-20T17:30:17.338Z,19.15
2023-01-20T17:32:48.412Z,21.00
2023-01-20T17:35:16.479Z,21.05
2023-01-20T17:37:43.777Z,17.70
2023-01-20T17:40:11.907Z,16.15
2023-01-20T17:42:39.465Z,16.52
2023-01-20T17:45:06.944Z,16.95
2023-01-20T17:47:34.119Z,15.00
2023-01-20T17:50:01.271Z,13.65
2023-01-20T17:52:28.792Z,13.60
2023-01-20T17:54:55.928Z,15.27
2023-01-20T17:57:23.032Z,15.33
2023-01-20T17:59:50.243Z,16.57
2023-01-20T18:02:18.718Z,16.65
2023-01-20T18:04:45.885Z,15.93
2023-01-20T18:07:13.197Z,20.70
2023-01-20T18:09:42.864Z,23.98
2023-01-20T18:12:10.148Z,22.13
2023-01-20T18:14:37.296Z,20.50
2023-01-20T18:17:04.459Z,18.88
2023-01-20T18:19:31.563Z,17.33
2023-01-20T18:22:00.396Z,17.30
2023-01-20T18:24:27.473Z,16.75
2023-01-20T18:26:56.286Z,18.80
2023-01-20T18:29:25.007Z,19.98
2023-01-20T18:31:52.232Z,16.92
2023-01-20T18:34:19.502Z,15.50
2023-01-20T18:36:46.859Z,15.45
2023-01-20T18:39:14.004Z,15.27
2023-01-20T18:41:41.155Z,14.93
2023-01-20T18:44:08.602Z,15.02
2023-01-20T18:46:36.140Z,16.20
2023-01-20T18:49:04.461Z,16.25
2023-01-20T18:51:31.604Z,15.23
2023-01-20T18:54:01.192Z,15.77
2023-01-20T18:56:29.204Z,17.90
2023-01-20T18:58:56.378Z,17.50
2023-01-20T19:01:24.683Z,19.63
2023-01-20T19:03:52.309Z,20.13
2023-01-20T19:06:22.182Z,21.05
2023-01-20T19:08:49.356Z,21.77
2023-01-20T19:11:18.059Z,17.90
2023-01-20T19:13:46.769Z,15.63
2023-01-20T19:16:14.030Z,16.23
2023-01-20T19:18:41.901Z,18.50
2023-01-20T19:21:10.691Z,27.40
2023-01-20T19:23:37.788Z,35.47
2023-01-20T19:26:06.254Z,35.08
2023-01-20T19:28:33.924Z,34.53
2023-01-20T19:31:05.016Z,29.80
2023-01-20T19:33:32.444Z,27.13
2023-01-20T19:36:00.033Z,21.85
2023-01-20T19:38:27.654Z,20.27
2023-01-20T19:40:55.036Z,21.48
2023-01-20T19:43:22.292Z,36.75
2023-01-20T19:45:49.481Z,35.88
2023-01-20T19:48:16.682Z,26.95
2023-01-20T19:50:44.208Z,21.95
2023-01-20T19:53:11.313Z,20.98
2023-01-20T19:55:38.417Z,20.88
2023-01-20T19:58:06.284Z,21.27
2023-01-20T20:00:33.382Z,23.33
2023-01-20T20:03:02.860Z,22.67
2023-01-20T20:05:29.983Z,21.55
2023-01-20T20:07:59.313Z,22.60
2023-01-20T20:10:26.481Z,22.25
2023-01-20T20:12:53.158Z,22.10
2023-01-20T20:15:20.492Z,21.50
2023-01-20T20:17:47.581Z,21.40
2023-01-20T20:20:15.096Z,22.00
2023-01-20T20:22:42.342Z,25.52
2023-01-20T20:25:11.548Z,28.65
2023-01-20T20:27:38.672Z,31.47
2023-01-20T20:30:06.897Z,30.52
2023-01-20T20:32:33.963Z,28.50
2023-01-20T20:35:01.027Z,28.08
2023-01-20T20:37:28.156Z,29.00
2023-01-20T20:39:55.358Z,27.70
2023-01-20T20:42:22.324Z,27.77
2023-01-20T20:44:49.659Z,28.00
2023-01-20T20:47:16.821Z,26.95
2023-01-20T20:49:43.506Z,28.45
2023-01-20T20:52:10.618Z,25.83
2023-01-20T20:54:37.739Z,25.77
2023-01-20T20:57:04.803Z,23.00
2023-01-20T20:59:31.920Z,22.00
2023-01-20T21:01:59.281Z,20.08
2023-01-20T21:04:27.006Z,22.08
2023-01-20T21:06:54.208Z,21.52
2023-01-20T21:09:21.321Z,24.52
2023-01-20T21:11:48.404Z,20.95
2023-01-20T21:14:15.532Z,20.42
2023-01-20T21:16:42.622Z,20.30
2023-01-20T21:19:09.714Z,19.75
2023-01-20T21:21:36.898Z,18.50
2023-01-20T21:24:04.194Z,21.80
2023-01-20T21:26:31.968Z,20.88
2023-01-20T21:29:02.779Z,19.80
2023-01-20T21:31:30.968Z,20.70
2023-01-20T21:33:58.895Z,18.98
2023-01-20T21:36:26.485Z,20.50
2023-01-20T21:38:53.615Z,19.90
2023-01-20T21:41:20.854Z,19.05
2023-01-20T21:44:08.342Z,18.33
2023-01-20T21:46:38.986Z,18.63
2023-01-20T21:49:26.916Z,18.40
2023-01-20T21:52:14.583Z,19.33
2023-01-20T21:54:41.999Z,18.90
2023-01-20T21:57:09.485Z,19.25
2023-01-20T21:59:36.734Z,18.60
2023-01-20T22:02:03.980Z,19.98
2023-01-20T22:04:31.449Z,18.45
2023-01-20T22:06:58.546Z,17.88
2023-01-20T22:09:25.750Z,18.00
2023-01-20T22:11:52.896Z,18.25
2023-01-20T22:14:20.040Z,17.58
2023-01-20T22:16:47.136Z,17.20
2023-01-20T22:19:14.771Z,17.17
2023-01-20T22:21:42.187Z,16.70
2023-01-20T22:24:09.723Z,17.45
2023-01-20T22:26:37.123Z,17.60
2023-01-20T22:29:04.270Z,18.73
2023-01-20T22:31:31.936Z,18.30
2023-01-20T22:33:59.362Z,18.02
2023-01-20T22:36:26.504Z,16.63
2023-01-20T22:38:54.103Z,16.65
2023-01-20T22:41:21.855Z,18.90
2023-01-20T22:43:50.848Z,18.25
2023-01-20T22:46:19.530Z,16.98
2023-01-20T22:48:47.146Z,18.40
2023-01-20T22:51:15.507Z,19.63
2023-01-20T22:53:43.256Z,20.40
2023-01-20T22:56:13.254Z,20.52
2023-01-20T22:58:40.734Z,19.33
2023-01-20T23:01:15.439Z,18.63
2023-01-20T23:03:42.791Z,17.30
2023-01-20T23:06:10.359Z,17.42
2023-01-20T23:08:37.493Z,17.65
2023-01-20T23:11:06.334Z,15.90
2023-01-20T23:13:35.186Z,16.17
2023-01-20T23:16:04.619Z,17.92
2023-01-20T23:18:31.726Z,18.90
2023-01-20T23:20:59.464Z,17.88
2023-01-20T23:23:27.187Z,19.70
2023-01-20T23:26:11.262Z,18.90
2023-01-20T23:28:38.223Z,18.67
2023-01-20T23:31:06.755Z,17.58
2023-01-20T23:33:34.077Z,18.23
2023-01-20T23:36:15.389Z,17.77
2023-01-20T23:38:42.697Z,19.20
2023-01-20T23:41:10.229Z,19.48
2023-01-20T23:43:37.337Z,18.83
2023-01-20T23:46:05.570Z,18.80
2023-01-20T23:48:33.077Z,18.65
2023-01-20T23:51:00.299Z,18.43
2023-01-20T23:53:28.163Z,18.70
2023-01-20T23:56:12.819Z,20.07
2023-01-20T23:58:40.042Z,20.13
